sensor_id;sensor_type;location;lat;lon;timestamp;pressure;altitude;pressure_sealevel;temperature;humidity
929;BME280;451;47.988;7.842;2022-08-25T00:05:07;98313.56;;;22.53;94.01
929;BME280;451;47.988;7.842;2022-08-25T00:14:13;98323.66;;;22.46;95.92
929;BME280;451;47.988;7.842;2022-08-25T00:23:15;98375.50;;;22.35;100.00
929;BME280;451;47.988;7.842;2022-08-25T00:32:18;98355.25;;;22.22;99.91
929;BME280;451;47.988;7.842;2022-08-25T00:41:22;98392.50;;;22.24;100.00
929;BME280;451;47.988;7.842;2022-08-25T00:50:24;98389.09;;;21.95;100.00
929;BME280;451;47.988;7.842;2022-08-25T00:59:27;98388.72;;;21.86;100.00
929;BME280;451;47.988;7.842;2022-08-25T01:08:29;98401.69;;;21.61;100.00
929;BME280;451;47.988;7.842;2022-08-25T01:17:52;98395.78;;;21.30;100.00
929;BME280;451;47.988;7.842;2022-08-25T01:26:54;98392.47;;;20.95;100.00
929;BME280;451;47.988;7.842;2022-08-25T01:35:55;98381.75;;;20.95;100.00
929;BME280;451;47.988;7.842;2022-08-25T01:44:57;98269.63;;;19.92;100.00
929;BME280;451;47.988;7.842;2022-08-25T01:53:59;98396.75;;;20.56;100.00
929;BME280;451;47.988;7.842;2022-08-25T02:03:00;98390.97;;;20.24;100.00
929;BME280;451;47.988;7.842;2022-08-25T02:12:02;98357.09;;;20.13;100.00
929;BME280;451;47.988;7.842;2022-08-25T02:21:04;98377.28;;;20.09;100.00
929;BME280;451;47.988;7.842;2022-08-25T02:30:07;98399.34;;;20.39;100.00
929;BME280;451;47.988;7.842;2022-08-25T02:39:10;98392.84;;;20.12;100.00
929;BME280;451;47.988;7.842;2022-08-25T02:48:12;98373.34;;;20.00;100.00
929;BME280;451;47.988;7.842;2022-08-25T02:57:13;98343.19;;;20.11;100.00
929;BME280;451;47.988;7.842;2022-08-25T03:06:18;98382.63;;;20.32;100.00
929;BME280;451;47.988;7.842;2022-08-25T03:15:21;98381.09;;;20.25;100.00
929;BME280;451;47.988;7.842;2022-08-25T03:24:25;98398.06;;;20.07;100.00
929;BME280;451;47.988;7.842;2022-08-25T03:33:28;98392.84;;;19.89;100.00
929;BME280;451;47.988;7.842;2022-08-25T03:42:31;98379.16;;;19.73;100.00
929;BME280;451;47.988;7.842;2022-08-25T03:51:47;98354.06;;;19.51;100.00
929;BME280;451;47.988;7.842;2022-08-25T04:00:49;98356.53;;;19.53;100.00
929;BME280;451;47.988;7.842;2022-08-25T04:09:53;98378.25;;;19.38;100.00
929;BME280;451;47.988;7.842;2022-08-25T04:18:55;98382.28;;;19.29;100.00
929;BME280;451;47.988;7.842;2022-08-25T04:27:57;98352.56;;;19.14;100.00
929;BME280;451;47.988;7.842;2022-08-25T04:37:00;98394.44;;;19.25;100.00
929;BME280;451;47.988;7.842;2022-08-25T04:46:08;98397.78;;;19.20;100.00
929;BME280;451;47.988;7.842;2022-08-25T04:55:11;98385.72;;;19.18;100.00
929;BME280;451;47.988;7.842;2022-08-25T05:04:15;98384.97;;;19.29;100.00
929;BME280;451;47.988;7.842;2022-08-25T05:13:17;98357.19;;;19.07;100.00
929;BME280;451;47.988;7.842;2022-08-25T05:22:19;98364.41;;;19.18;100.00
929;BME280;451;47.988;7.842;2022-08-25T05:31:22;98346.03;;;19.40;100.00
929;BME280;451;47.988;7.842;2022-08-25T05:40:24;98267.88;;;19.04;100.00
929;BME280;451;47.988;7.842;2022-08-25T05:49:26;98356.53;;;20.11;100.00
929;BME280;451;47.988;7.842;2022-08-25T05:58:28;98346.88;;;20.33;100.00
929;BME280;451;47.988;7.842;2022-08-25T06:07:30;98308.44;;;20.23;100.00
929;BME280;451;47.988;7.842;2022-08-25T06:16:32;98318.78;;;20.71;100.00
929;BME280;451;47.988;7.842;2022-08-25T06:25:34;98315.84;;;21.29;100.00
929;BME280;451;47.988;7.842;2022-08-25T06:34:35;98337.75;;;21.81;100.00
929;BME280;451;47.988;7.842;2022-08-25T06:43:39;98314.19;;;22.60;98.88
929;BME280;451;47.988;7.842;2022-08-25T06:52:41;98333.16;;;23.02;94.02
929;BME280;451;47.988;7.842;2022-08-25T07:01:43;98331.13;;;22.87;96.82
929;BME280;451;47.988;7.842;2022-08-25T07:10:46;98341.19;;;22.53;100.00
929;BME280;451;47.988;7.842;2022-08-25T07:19:48;98345.59;;;22.43;99.93
929;BME280;451;47.988;7.842;2022-08-25T07:28:51;98361.72;;;22.70;93.67
929;BME280;451;47.988;7.842;2022-08-25T07:37:54;98367.09;;;23.18;88.71
929;BME280;451;47.988;7.842;2022-08-25T07:46:59;98348.81;;;23.42;84.06
929;BME280;451;47.988;7.842;2022-08-25T07:56:00;98367.53;;;24.01;83.72
929;BME280;451;47.988;7.842;2022-08-25T08:05:03;98349.78;;;24.00;83.27
929;BME280;451;47.988;7.842;2022-08-25T08:14:05;98354.56;;;24.30;83.34
929;BME280;451;47.988;7.842;2022-08-25T08:23:08;98372.22;;;24.78;80.48
929;BME280;451;47.988;7.842;2022-08-25T08:32:10;98324.25;;;24.44;81.43
929;BME280;451;47.988;7.842;2022-08-25T08:51:20;98338.94;;;24.94;80.17
929;BME280;451;47.988;7.842;2022-08-25T09:00:26;98315.31;;;25.47;76.92
929;BME280;451;47.988;7.842;2022-08-25T09:09:32;98296.19;;;25.79;74.17
929;BME280;451;47.988;7.842;2022-08-25T09:37:03;98297.78;;;27.08;69.66
929;BME280;451;47.988;7.842;2022-08-25T09:46:14;98282.28;;;28.34;60.92
929;BME280;451;47.988;7.842;2022-08-25T09:55:29;98236.06;;;28.49;59.43
929;BME280;451;47.988;7.842;2022-08-25T10:04:37;98286.97;;;28.47;61.17
929;BME280;451;47.988;7.842;2022-08-25T10:14:00;98275.66;;;29.02;58.89
929;BME280;451;47.988;7.842;2022-08-25T10:23:10;98282.81;;;29.11;57.45
929;BME280;451;47.988;7.842;2022-08-25T10:32:21;98273.03;;;28.97;58.11
929;BME280;451;47.988;7.842;2022-08-25T10:41:30;98260.31;;;28.78;56.56
929;BME280;451;47.988;7.842;2022-08-25T10:50:39;98243.53;;;28.95;53.37
929;BME280;451;47.988;7.842;2022-08-25T11:08:56;98199.91;;;30.02;49.82
929;BME280;451;47.988;7.842;2022-08-25T11:18:03;98226.91;;;30.21;48.81
929;BME280;451;47.988;7.842;2022-08-25T11:27:10;98220.16;;;29.64;49.31
929;BME280;451;47.988;7.842;2022-08-25T11:36:37;98217.63;;;30.36;48.77
929;BME280;451;47.988;7.842;2022-08-25T11:54:51;98197.50;;;31.09;48.53
929;BME280;451;47.988;7.842;2022-08-25T12:41:11;98163.34;;;31.56;46.15
929;BME280;451;47.988;7.842;2022-08-25T12:50:39;98150.28;;;31.27;47.54
929;BME280;451;47.988;7.842;2022-08-25T12:59:48;98145.34;;;31.69;46.11
929;BME280;451;47.988;7.842;2022-08-25T13:18:33;98128.19;;;32.85;44.02
929;BME280;451;47.988;7.842;2022-08-25T13:27:35;98089.59;;;32.31;43.24
929;BME280;451;47.988;7.842;2022-08-25T13:36:45;98113.13;;;32.44;41.83
929;BME280;451;47.988;7.842;2022-08-25T13:46:06;98103.00;;;32.97;40.84
929;BME280;451;47.988;7.842;2022-08-25T13:55:08;98097.91;;;32.78;39.08
929;BME280;451;47.988;7.842;2022-08-25T14:13:43;98080.78;;;32.60;36.29
929;BME280;451;47.988;7.842;2022-08-25T14:22:45;98073.38;;;33.33;35.11
929;BME280;451;47.988;7.842;2022-08-25T14:31:47;98025.50;;;32.77;34.38
929;BME280;451;47.988;7.842;2022-08-25T14:40:49;98072.16;;;32.67;33.19
929;BME280;451;47.988;7.842;2022-08-25T14:49:52;98062.06;;;33.22;31.69
929;BME280;451;47.988;7.842;2022-08-25T14:58:54;98041.69;;;33.11;29.83
929;BME280;451;47.988;7.842;2022-08-25T15:07:56;98046.00;;;33.12;29.44
929;BME280;451;47.988;7.842;2022-08-25T15:17:17;98001.13;;;33.48;25.71
929;BME280;451;47.988;7.842;2022-08-25T15:26:19;98032.13;;;33.64;25.85
929;BME280;451;47.988;7.842;2022-08-25T15:35:21;98029.53;;;32.54;24.88
929;BME280;451;47.988;7.842;2022-08-25T15:44:23;98033.56;;;32.39;30.04
929;BME280;451;47.988;7.842;2022-08-25T15:53:25;97981.91;;;32.77;28.96
929;BME280;451;47.988;7.842;2022-08-25T16:02:27;97999.66;;;32.83;29.13
929;BME280;451;47.988;7.842;2022-08-25T16:11:31;98028.41;;;32.72;28.71
929;BME280;451;47.988;7.842;2022-08-25T16:20:34;98021.09;;;32.29;29.40
929;BME280;451;47.988;7.842;2022-08-25T16:29:41;98016.44;;;32.47;28.96
929;BME280;451;47.988;7.842;2022-08-25T16:38:43;97991.31;;;32.41;29.29
929;BME280;451;47.988;7.842;2022-08-25T16:47:45;98014.69;;;31.99;33.01
929;BME280;451;47.988;7.842;2022-08-25T16:56:47;98010.38;;;32.07;33.54
929;BME280;451;47.988;7.842;2022-08-25T17:05:49;98007.75;;;31.50;35.34
929;BME280;451;47.988;7.842;2022-08-25T17:14:52;97998.47;;;31.51;36.16
929;BME280;451;47.988;7.842;2022-08-25T17:23:55;98005.66;;;30.99;36.67
929;BME280;451;47.988;7.842;2022-08-25T17:32:58;98002.00;;;30.95;37.30
929;BME280;451;47.988;7.842;2022-08-25T17:42:00;97976.47;;;30.43;37.49
929;BME280;451;47.988;7.842;2022-08-25T17:51:03;98013.81;;;30.60;39.04
929;BME280;451;47.988;7.842;2022-08-25T18:00:05;98024.63;;;29.57;40.15
929;BME280;451;47.988;7.842;2022-08-25T18:09:13;97995.53;;;28.67;41.92
929;BME280;451;47.988;7.842;2022-08-25T18:18:14;97998.31;;;27.97;43.81
929;BME280;451;47.988;7.842;2022-08-25T18:27:16;98042.22;;;27.51;46.57
929;BME280;451;47.988;7.842;2022-08-25T18:36:18;98050.47;;;27.36;48.03
929;BME280;451;47.988;7.842;2022-08-25T18:45:25;98050.03;;;26.76;51.42
929;BME280;451;47.988;7.842;2022-08-25T18:54:27;98018.19;;;26.16;51.33
929;BME280;451;47.988;7.842;2022-08-25T19:03:29;98021.19;;;25.70;52.40
929;BME280;451;47.988;7.842;2022-08-25T19:12:30;98092.75;;;25.91;52.80
929;BME280;451;47.988;7.842;2022-08-25T19:21:33;98062.16;;;25.62;53.51
929;BME280;451;47.988;7.842;2022-08-25T19:30:34;98067.34;;;25.43;53.34
929;BME280;451;47.988;7.842;2022-08-25T19:39:38;98083.81;;;25.31;54.85
929;BME280;451;47.988;7.842;2022-08-25T19:48:40;98047.84;;;24.87;56.40
929;BME280;451;47.988;7.842;2022-08-25T19:57:42;98089.59;;;24.89;57.52
929;BME280;451;47.988;7.842;2022-08-25T20:06:44;98080.69;;;24.74;57.64
929;BME280;451;47.988;7.842;2022-08-25T20:15:47;98082.31;;;24.49;58.74
929;BME280;451;47.988;7.842;2022-08-25T20:24:48;98107.59;;;24.23;62.70
929;BME280;451;47.988;7.842;2022-08-25T20:33:50;98064.50;;;23.78;64.62
929;BME280;451;47.988;7.842;2022-08-25T20:42:53;98056.38;;;23.57;65.04
929;BME280;451;47.988;7.842;2022-08-25T20:51:55;98075.94;;;23.48;67.01
929;BME280;451;47.988;7.842;2022-08-25T21:00:57;98049.16;;;23.06;69.77
929;BME280;451;47.988;7.842;2022-08-25T21:09:59;98090.97;;;23.02;71.30
929;BME280;451;47.988;7.842;2022-08-25T21:19:01;98100.03;;;22.90;72.56
929;BME280;451;47.988;7.842;2022-08-25T21:28:02;98080.50;;;22.63;73.93
929;BME280;451;47.988;7.842;2022-08-25T21:37:04;98075.25;;;22.41;74.97
929;BME280;451;47.988;7.842;2022-08-25T21:46:10;98131.72;;;22.67;75.42
929;BME280;451;47.988;7.842;2022-08-25T21:55:12;98113.06;;;22.45;76.14
929;BME280;451;47.988;7.842;2022-08-25T22:04:14;98092.56;;;22.29;76.58
929;BME280;451;47.988;7.842;2022-08-25T22:13:15;98131.38;;;22.26;79.26
929;BME280;451;47.988;7.842;2022-08-25T22:22:17;98135.25;;;22.13;80.92
929;BME280;451;47.988;7.842;2022-08-25T22:31:19;98132.69;;;21.97;82.13
929;BME280;451;47.988;7.842;2022-08-25T22:40:21;98126.13;;;21.88;83.20
929;BME280;451;47.988;7.842;2022-08-25T22:49:22;98081.09;;;21.58;83.53
929;BME280;451;47.988;7.842;2022-08-25T22:58:24;98046.53;;;21.29;84.21
929;BME280;451;47.988;7.842;2022-08-25T23:07:26;98096.66;;;21.61;84.30
929;BME280;451;47.988;7.842;2022-08-25T23:16:28;98055.72;;;21.39;85.21
929;BME280;451;47.988;7.842;2022-08-25T23:25:31;98101.06;;;21.72;84.77
929;BME280;451;47.988;7.842;2022-08-25T23:34:34;98102.88;;;21.45;85.52
929;BME280;451;47.988;7.842;2022-08-25T23:43:36;98057.50;;;21.11;86.93
929;BME280;451;47.988;7.842;2022-08-25T23:52:39;98089.97;;;21.20;86.97
